Time;durP1;ratioP1;P1;durP2;ratioP2;P2;SDS_P1;SDS_P2;PMS_P1;PMS_P2;Temp;Humidity;BMP_temperature;BMP_pressure;BME280_temperature;BME280_humidity;BME280_pressure;Samples;Min_cycle;Max_cycle;Signal;HPM_P1;HPM_P2
2021/09/21 07:02:15;;;;;;;8.50;6.07;;;11.90;89.10;;;;;;5105769;27;20971;-67
2021/09/21 07:04:41;;;;;;;10.37;6.63;;;11.80;88.70;;;;;;5105078;28;20040;-67
2021/09/21 07:07:07;;;;;;;9.50;6.90;;;11.90;89.60;;;;;;5106954;27;20048;-69
2021/09/21 07:09:32;;;;;;;10.50;6.80;;;11.90;90.10;;;;;;5105461;28;20158;-69
2021/09/21 07:11:58;;;;;;;9.27;6.50;;;12.00;90.40;;;;;;5104281;28;20471;-65
2021/09/21 07:14:23;;;;;;;8.57;7.03;;;12.10;90.60;;;;;;5106495;28;20517;-67
2021/09/21 07:16:49;;;;;;;8.53;6.13;;;12.20;90.70;;;;;;5104140;28;20083;-67
2021/09/21 07:19:16;;;;;;;9.30;5.87;;;12.30;90.70;;;;;;5106575;28;20048;-68
2021/09/21 07:21:42;;;;;;;9.33;6.90;;;12.40;90.70;;;;;;5104968;28;20066;-72
2021/09/21 07:24:08;;;;;;;7.90;6.10;;;12.50;90.80;;;;;;5104426;28;20043;-70
2021/09/21 07:26:34;;;;;;;9.63;6.40;;;12.60;90.70;;;;;;5105142;28;20052;-67
2021/09/21 07:29:00;;;;;;;8.53;6.27;;;12.70;90.60;;;;;;5105060;28;20044;-68
2021/09/21 07:31:25;;;;;;;6.53;5.43;;;12.80;90.50;;;;;;5104310;28;20780;-68
2021/09/21 07:33:51;;;;;;;10.73;6.30;;;12.90;90.60;;;;;;5104785;28;20044;-69
2021/09/21 07:36:17;;;;;;;8.33;5.73;;;13.00;90.30;;;;;;5106188;28;20055;-68
2021/09/21 07:38:42;;;;;;;11.00;6.27;;;13.10;90.10;;;;;;5104804;27;20400;-68
2021/09/21 07:41:08;;;;;;;7.40;5.63;;;13.20;90.00;;;;;;5105519;28;20039;-69
2021/09/21 07:43:34;;;;;;;7.10;5.70;;;13.40;89.80;;;;;;5105803;28;20039;-69
2021/09/21 07:45:59;;;;;;;7.23;5.47;;;13.40;89.30;;;;;;5104845;28;20567;-64
2021/09/21 07:48:25;;;;;;;12.70;6.43;;;13.50;88.90;;;;;;5104860;28;20040;-64
2021/09/21 07:50:56;;;;;;;6.80;5.70;;;13.60;88.70;;;;;;5105487;28;20043;-64
2021/09/21 07:53:22;;;;;;;8.27;5.22;;;13.70;88.50;;;;;;5105399;28;20070;-71
2021/09/21 07:55:50;;;;;;;7.13;5.43;;;13.80;88.40;;;;;;5105738;28;20055;-71
2021/09/21 07:58:17;;;;;;;10.47;5.83;;;13.90;88.20;;;;;;5105876;28;20083;-70
2021/09/21 08:00:43;;;;;;;7.30;5.60;;;14.00;87.60;;;;;;5104479;28;20060;-71
2021/09/21 08:03:09;;;;;;;6.73;5.60;;;14.10;87.60;;;;;;5105821;28;20488;-71
2021/09/21 08:05:35;;;;;;;8.20;5.67;;;14.10;87.30;;;;;;5105692;28;20067;-71
2021/09/21 08:08:01;;;;;;;7.93;5.40;;;14.20;87.00;;;;;;5104761;28;20456;-72
2021/09/21 08:10:27;;;;;;;6.83;5.83;;;14.30;86.90;;;;;;5104473;28;20094;-74
2021/09/21 08:12:52;;;;;;;7.77;5.90;;;14.40;86.80;;;;;;5094584;28;20051;-73
2021/09/21 08:15:18;;;;;;;9.33;5.57;;;14.50;86.30;;;;;;5090174;28;20131;-73
2021/09/21 08:17:44;;;;;;;7.30;5.87;;;14.60;86.20;;;;;;5091797;28;20048;-71
2021/09/21 08:20:10;;;;;;;7.93;5.97;;;14.60;85.90;;;;;;5090191;28;20067;-71
2021/09/21 08:22:37;;;;;;;8.63;5.90;;;14.70;85.90;;;;;;5091677;28;20134;-74
2021/09/21 08:53:40;;;;;;;8.03;6.07;;;15.20;82.50;;;;;;5096364;27;20408;-71
2021/09/21 08:56:07;;;;;;;7.60;5.57;;;15.20;82.50;;;;;;5098515;28;20056;-73
2021/09/21 08:58:32;;;;;;;9.47;6.40;;;15.20;82.80;;;;;;5103454;28;20407;-72
2021/09/21 09:01:15;;;;;;;7.57;5.97;;;15.30;83.20;;;;;;5088818;28;20040;-73
2021/09/21 09:03:55;;;;;;;8.50;5.70;;;15.30;83.20;;;;;;5087826;28;20428;-74
2021/09/21 09:06:21;;;;;;;8.83;6.07;;;15.40;83.30;;;;;;5087936;28;20040;-68
2021/09/21 09:08:46;;;;;;;10.27;6.00;;;15.40;83.10;;;;;;5089996;28;20475;-72
